createdAt,value
2019-05-02T00:02:30.085Z,10.18
2019-05-02T00:05:00.050Z,13.18
2019-05-02T00:07:29.739Z,9.15
2019-05-02T00:09:59.812Z,11.93
2019-05-02T00:12:29.808Z,9.85
2019-05-02T00:15:02.378Z,9.93
2019-05-02T00:17:31.826Z,9.75
2019-05-02T00:20:01.463Z,10.75
2019-05-02T00:22:31.190Z,11.30
2019-05-02T00:25:00.895Z,8.45
2019-05-02T00:27:32.852Z,10.32
2019-05-02T00:30:01.993Z,11.63
2019-05-02T00:32:31.650Z,9.85
2019-05-02T00:35:01.353Z,11.22
2019-05-02T00:37:30.983Z,12.03
2019-05-02T00:40:00.715Z,10.90
2019-05-02T00:42:30.459Z,10.58
2019-05-02T00:45:00.110Z,9.33
2019-05-02T00:47:31.375Z,10.18
2019-05-02T00:50:01.025Z,9.15
2019-05-02T00:52:32.856Z,10.53
2019-05-02T00:55:02.039Z,10.60
2019-05-02T00:57:31.658Z,9.10
2019-05-02T01:00:01.317Z,11.10
2019-05-02T01:02:35.950Z,9.83
2019-05-02T01:05:07.801Z,11.55
2019-05-02T01:07:37.423Z,10.13
2019-05-02T01:10:08.444Z,9.35
2019-05-02T01:12:39.927Z,10.05
2019-05-02T01:15:10.152Z,8.33
2019-05-02T01:17:39.809Z,8.63
2019-05-02T01:20:10.244Z,8.13
2019-05-02T01:22:39.928Z,8.68
2019-05-02T01:25:15.325Z,11.55
2019-05-02T01:27:48.745Z,9.20
2019-05-02T01:30:18.856Z,9.43
2019-05-02T01:33:06.601Z,10.23
2019-05-02T01:38:31.801Z,12.07
2019-05-02T01:40:58.206Z,8.33
2019-05-02T01:43:31.319Z,8.63
2019-05-02T01:46:01.090Z,12.30
2019-05-02T01:48:30.786Z,9.75
2019-05-02T01:51:04.676Z,9.55
2019-05-02T01:53:34.205Z,9.38
2019-05-02T01:56:03.197Z,11.22
2019-05-02T01:58:32.888Z,10.13
2019-05-02T02:01:02.621Z,9.63
2019-05-02T02:03:32.233Z,9.30
2019-05-02T02:06:02.760Z,7.62
2019-05-02T02:08:34.016Z,9.95
2019-05-02T02:11:03.884Z,11.20
2019-05-02T02:13:36.401Z,8.55
2019-05-02T02:16:05.921Z,12.88
2019-05-02T02:18:40.240Z,11.05
2019-05-02T02:21:12.147Z,13.75
2019-05-02T02:23:52.447Z,9.20
2019-05-02T02:26:23.851Z,11.80
2019-05-02T02:28:53.570Z,12.85
2019-05-02T02:31:23.355Z,8.88
2019-05-02T02:33:53.029Z,12.75
2019-05-02T02:36:31.685Z,10.53
2019-05-02T02:38:54.082Z,13.03
2019-05-02T02:41:23.724Z,9.68
2019-05-02T02:44:03.941Z,9.85
2019-05-02T02:46:38.050Z,9.53
2019-05-02T02:49:06.760Z,9.45
2019-05-02T02:51:36.412Z,10.95
2019-05-02T02:54:06.189Z,9.43
2019-05-02T02:56:40.416Z,10.70
2019-05-02T02:59:07.396Z,9.10
2019-05-02T03:01:37.038Z,11.12
2019-05-02T03:04:09.471Z,9.68
2019-05-02T03:06:44.251Z,9.43
2019-05-02T03:09:09.679Z,9.70
2019-05-02T03:11:40.956Z,10.43
2019-05-02T03:14:17.734Z,8.85
2019-05-02T03:16:49.587Z,12.05
2019-05-02T03:19:21.213Z,9.93
2019-05-02T03:22:00.886Z,8.58
2019-05-02T03:24:27.879Z,10.53
2019-05-02T03:26:58.546Z,10.15
2019-05-02T03:29:39.789Z,11.93
2019-05-02T03:32:14.339Z,9.13
2019-05-02T03:34:47.367Z,9.78
2019-05-02T03:37:09.571Z,10.43
2019-05-02T03:39:34.439Z,10.35
2019-05-02T03:42:05.080Z,11.28
2019-05-02T03:44:35.017Z,9.75
2019-05-02T03:47:05.250Z,9.40
2019-05-02T03:49:41.225Z,11.70
2019-05-02T03:52:07.017Z,9.78
2019-05-02T03:54:48.584Z,9.60
2019-05-02T03:57:08.650Z,12.03
2019-05-02T03:59:41.593Z,10.95
2019-05-02T04:02:14.030Z,12.70
2019-05-02T04:04:43.305Z,12.37
2019-05-02T04:07:13.872Z,12.05
2019-05-02T04:09:43.595Z,10.35
2019-05-02T04:12:18.551Z,8.28
2019-05-02T04:14:45.069Z,10.53
2019-05-02T04:17:15.696Z,10.05
2019-05-02T04:19:45.688Z,10.45
2019-05-02T04:22:16.415Z,12.00
2019-05-02T04:24:54.585Z,9.33
2019-05-02T04:27:17.767Z,14.23
2019-05-02T04:29:47.417Z,10.18
2019-05-02T04:32:17.107Z,12.78
2019-05-02T04:34:49.045Z,8.95
2019-05-02T04:37:18.129Z,11.53
2019-05-02T04:39:49.112Z,10.70
2019-05-02T04:42:22.992Z,10.05
2019-05-02T04:45:11.897Z,13.48
2019-05-02T04:47:22.368Z,9.90
2019-05-02T04:49:52.301Z,13.30
2019-05-02T04:52:22.044Z,10.08
2019-05-02T04:54:51.666Z,13.90
2019-05-02T04:57:29.199Z,12.40
2019-05-02T05:00:04.949Z,11.28
2019-05-02T05:02:34.147Z,11.53
2019-05-02T05:04:55.410Z,14.10
2019-05-02T05:07:25.209Z,13.00
2019-05-02T05:09:58.196Z,10.23
2019-05-02T05:12:27.778Z,15.35
2019-05-02T05:14:57.862Z,13.53
2019-05-02T05:17:32.448Z,12.60
2019-05-02T05:20:10.446Z,14.58
2019-05-02T05:22:38.462Z,15.30
2019-05-02T05:25:17.742Z,14.43
2019-05-02T05:27:48.067Z,13.13
2019-05-02T05:30:19.442Z,15.05
2019-05-02T05:32:49.070Z,16.12
2019-05-02T05:35:18.800Z,11.95
2019-05-02T05:37:52.959Z,13.08
2019-05-02T05:40:22.578Z,14.63
2019-05-02T05:42:51.269Z,16.02
2019-05-02T05:45:20.952Z,15.63
2019-05-02T05:47:52.446Z,12.85
2019-05-02T05:50:22.043Z,15.72
2019-05-02T05:52:52.016Z,15.15
2019-05-02T05:55:24.458Z,14.75
2019-05-02T05:58:00.037Z,14.23
2019-05-02T06:00:24.673Z,12.58
2019-05-02T06:03:01.184Z,12.88
2019-05-02T06:05:27.654Z,16.07
2019-05-02T06:07:57.563Z,16.23
2019-05-02T06:10:27.359Z,12.45
2019-05-02T06:12:56.985Z,18.07
2019-05-02T06:15:26.648Z,15.48
2019-05-02T06:18:00.082Z,14.10
2019-05-02T06:20:30.635Z,12.47
2019-05-02T06:23:00.105Z,15.78
2019-05-02T06:25:34.180Z,14.25
2019-05-02T06:28:05.466Z,13.00
2019-05-02T06:30:33.277Z,14.85
2019-05-02T06:33:02.907Z,13.95
2019-05-02T06:35:32.585Z,14.78
2019-05-02T06:38:02.219Z,13.43
2019-05-02T06:40:31.852Z,12.78
2019-05-02T06:43:04.349Z,14.90
2019-05-02T06:45:37.564Z,12.50
2019-05-02T06:48:04.388Z,14.30
2019-05-02T06:50:38.803Z,16.80
2019-05-02T06:53:09.736Z,14.55
2019-05-02T06:55:38.746Z,13.83
2019-05-02T06:58:08.594Z,13.43
2019-05-02T07:00:55.645Z,11.30
2019-05-02T07:03:11.502Z,13.88
2019-05-02T07:05:43.827Z,17.00
2019-05-02T07:08:14.075Z,19.57
2019-05-02T07:10:45.196Z,16.32
2019-05-02T07:13:15.477Z,15.55
2019-05-02T07:15:48.601Z,13.75
2019-05-02T07:18:20.165Z,16.05
2019-05-02T07:20:49.906Z,14.07
2019-05-02T07:23:19.620Z,19.32
2019-05-02T07:25:49.260Z,13.95
2019-05-02T07:28:19.057Z,15.70
2019-05-02T07:30:48.702Z,17.37
2019-05-02T07:33:18.371Z,17.87
2019-05-02T07:35:48.067Z,14.13
2019-05-02T07:38:20.264Z,16.90
2019-05-02T07:40:53.061Z,14.23
2019-05-02T07:43:22.210Z,17.35
2019-05-02T07:45:52.116Z,14.58
2019-05-02T07:48:21.772Z,14.53
2019-05-02T07:50:51.850Z,15.25
2019-05-02T07:53:21.844Z,15.78
2019-05-02T07:55:51.513Z,14.20
2019-05-02T07:58:21.229Z,13.35
2019-05-02T08:00:50.887Z,12.00
2019-05-02T08:03:20.518Z,13.15
2019-05-02T08:05:54.491Z,19.75
2019-05-02T08:08:24.974Z,15.98
2019-05-02T08:10:53.371Z,13.65
2019-05-02T08:13:24.374Z,15.28
2019-05-02T08:15:54.014Z,15.50
2019-05-02T08:18:25.129Z,15.18
2019-05-02T08:20:56.094Z,12.15
2019-05-02T08:23:27.888Z,14.35
2019-05-02T08:25:57.723Z,14.68
2019-05-02T08:28:29.022Z,14.93
2019-05-02T08:30:58.663Z,13.72
2019-05-02T08:33:29.290Z,15.08
2019-05-02T08:35:59.687Z,14.28
2019-05-02T08:38:29.375Z,15.78
2019-05-02T08:40:58.998Z,16.50
2019-05-02T08:43:28.631Z,13.53
2019-05-02T08:45:58.293Z,15.10
2019-05-02T08:48:27.928Z,11.95
2019-05-02T08:50:57.598Z,15.43
2019-05-02T08:53:27.229Z,14.07
2019-05-02T08:55:56.893Z,16.48
2019-05-02T08:58:26.527Z,15.43
2019-05-02T09:00:56.269Z,14.03
2019-05-02T09:03:25.886Z,14.20
2019-05-02T09:06:05.504Z,13.68
2019-05-02T09:08:27.219Z,13.78
2019-05-02T09:10:56.848Z,13.00
2019-05-02T09:13:29.340Z,12.33
2019-05-02T09:15:57.936Z,14.45
2019-05-02T09:18:35.270Z,10.75
2019-05-02T09:20:58.956Z,11.85
2019-05-02T09:23:35.017Z,11.83
2019-05-02T09:26:00.133Z,12.18
2019-05-02T09:28:31.884Z,10.28
2019-05-02T09:31:04.974Z,9.33
2019-05-02T09:33:36.821Z,11.40
2019-05-02T09:36:04.064Z,11.18
2019-05-02T09:38:35.298Z,9.33
2019-05-02T09:41:16.124Z,10.72
2019-05-02T09:43:39.042Z,9.20
2019-05-02T09:46:12.826Z,11.65
2019-05-02T09:48:39.211Z,11.57
2019-05-02T09:51:15.669Z,8.93
2019-05-02T09:53:40.381Z,10.53
2019-05-02T09:56:10.036Z,10.58
2019-05-02T09:58:39.668Z,9.30
2019-05-02T10:01:14.151Z,9.10
2019-05-02T10:03:43.863Z,7.90
2019-05-02T10:06:18.054Z,11.53
2019-05-02T10:08:46.537Z,8.73
2019-05-02T10:11:16.937Z,9.75
2019-05-02T10:13:47.907Z,9.18
2019-05-02T10:16:22.382Z,8.20
2019-05-02T10:18:49.249Z,8.63
2019-05-02T10:21:19.116Z,10.13
2019-05-02T10:23:51.807Z,10.50
2019-05-02T10:26:24.550Z,8.68
2019-05-02T10:28:53.578Z,9.10
2019-05-02T10:31:27.577Z,10.40
2019-05-02T10:33:55.048Z,8.83
2019-05-02T10:36:24.811Z,9.53
2019-05-02T10:38:59.038Z,8.43
2019-05-02T10:41:25.845Z,7.95
2019-05-02T10:43:59.171Z,12.63
2019-05-02T10:46:33.452Z,7.83
2019-05-02T10:49:02.033Z,10.72
2019-05-02T10:51:35.014Z,10.58
2019-05-02T10:54:06.577Z,10.68
2019-05-02T10:56:36.433Z,11.73
2019-05-02T10:59:06.223Z,8.65
2019-05-02T11:01:37.597Z,12.55
2019-05-02T11:04:12.860Z,12.98
2019-05-02T11:06:46.189Z,13.75
2019-05-02T11:09:16.751Z,14.20
2019-05-02T11:11:46.114Z,10.68
2019-05-02T11:14:29.222Z,12.23
2019-05-02T11:17:03.194Z,11.57
2019-05-02T11:19:46.417Z,16.37
2019-05-02T11:22:16.165Z,12.93
2019-05-02T11:24:45.842Z,11.83
2019-05-02T11:27:15.459Z,10.53
2019-05-02T11:29:45.240Z,10.75
2019-05-02T11:32:14.932Z,8.75
2019-05-02T11:34:44.590Z,8.08
2019-05-02T11:37:14.286Z,9.03
2019-05-02T11:39:49.756Z,11.15
2019-05-02T11:42:17.801Z,9.08
2019-05-02T11:44:46.757Z,8.35
2019-05-02T11:47:17.341Z,8.10
2019-05-02T11:49:52.064Z,7.30
2019-05-02T11:52:19.282Z,6.20
2019-05-02T11:54:49.006Z,6.58
2019-05-02T11:57:22.799Z,7.33
2019-05-02T11:59:51.948Z,11.55
2019-05-02T12:02:25.698Z,7.12
2019-05-02T12:04:55.653Z,7.78
2019-05-02T12:07:25.508Z,8.00
2019-05-02T12:09:57.078Z,6.92
2019-05-02T12:12:27.190Z,6.55
2019-05-02T12:14:57.976Z,8.88
2019-05-02T12:17:27.695Z,8.28
2019-05-02T12:19:57.480Z,13.00
2019-05-02T12:22:27.154Z,10.45
2019-05-02T12:24:56.852Z,11.05
2019-05-02T12:27:26.537Z,10.82
2019-05-02T12:29:57.926Z,12.25
2019-05-02T12:32:27.842Z,12.88
2019-05-02T12:34:57.500Z,13.25
2019-05-02T12:37:27.135Z,12.23
2019-05-02T12:39:56.804Z,10.82
2019-05-02T12:42:26.868Z,15.78
2019-05-02T12:44:56.671Z,16.07
2019-05-02T12:47:26.301Z,11.53
2019-05-02T12:49:55.990Z,11.38
2019-05-02T12:52:25.620Z,11.08
2019-05-02T12:54:55.258Z,11.65
2019-05-02T12:57:24.922Z,14.13
2019-05-02T12:59:55.619Z,13.50
2019-05-02T13:02:32.437Z,11.57
2019-05-02T13:05:02.522Z,11.48
2019-05-02T13:07:32.318Z,13.10
2019-05-02T13:10:02.571Z,10.15
2019-05-02T13:12:34.098Z,14.70
2019-05-02T13:15:04.462Z,15.00
2019-05-02T13:17:42.520Z,14.28
2019-05-02T13:20:08.877Z,17.00
2019-05-02T13:22:52.660Z,13.75
2019-05-02T13:25:27.200Z,11.53
2019-05-02T13:27:56.155Z,15.78
2019-05-02T13:30:32.805Z,14.13
2019-05-02T13:33:03.365Z,13.03
2019-05-02T13:35:34.665Z,10.55
2019-05-02T13:38:05.379Z,9.08
2019-05-02T13:40:41.832Z,6.75
2019-05-02T13:43:12.653Z,6.28
2019-05-02T13:45:47.881Z,6.70
2019-05-02T13:48:17.508Z,7.55
2019-05-02T13:50:47.303Z,5.53
2019-05-02T13:53:17.073Z,8.00
2019-05-02T13:55:52.370Z,9.15
2019-05-02T13:58:29.046Z,15.98
2019-05-02T14:00:53.680Z,11.05
2019-05-02T14:03:23.918Z,13.28
2019-05-02T14:05:53.975Z,5.50
2019-05-02T14:08:37.227Z,7.55
2019-05-02T14:11:06.874Z,8.33
2019-05-02T14:13:37.084Z,7.15
2019-05-02T14:16:06.876Z,7.03
2019-05-02T14:18:36.510Z,8.33
2019-05-02T14:21:06.306Z,6.15
2019-05-02T14:23:35.943Z,7.37
2019-05-02T14:26:05.817Z,5.08
2019-05-02T14:28:36.346Z,6.22
2019-05-02T14:31:06.339Z,7.65
2019-05-02T14:33:37.633Z,7.28
2019-05-02T14:36:07.340Z,6.33
2019-05-02T14:38:37.070Z,7.05
2019-05-02T14:41:08.473Z,5.47
2019-05-02T14:43:55.289Z,5.40
2019-05-02T14:46:34.277Z,7.10
2019-05-02T14:48:57.384Z,5.45
2019-05-02T14:51:28.079Z,7.22
2019-05-02T14:54:03.610Z,7.08
2019-05-02T14:56:47.775Z,8.43
2019-05-02T14:59:19.743Z,6.12
2019-05-02T15:02:03.129Z,6.10
2019-05-02T15:04:28.372Z,8.55
2019-05-02T15:06:58.050Z,9.38
2019-05-02T15:09:27.676Z,6.70
2019-05-02T15:12:02.820Z,6.50
2019-05-02T15:14:34.818Z,7.05
2019-05-02T15:17:05.620Z,10.32
2019-05-02T15:19:35.256Z,9.03
2019-05-02T15:22:05.389Z,7.50
2019-05-02T15:24:37.400Z,11.50
2019-05-02T15:27:11.962Z,9.95
2019-05-02T15:29:37.799Z,8.15
2019-05-02T15:32:27.064Z,8.48
2019-05-02T15:35:06.921Z,7.55
2019-05-02T15:37:36.534Z,8.18
2019-05-02T15:42:43.186Z,9.75
2019-05-02T15:45:12.910Z,7.37
2019-05-02T15:47:45.272Z,6.95
2019-05-02T15:50:21.931Z,8.18
2019-05-02T15:52:57.327Z,7.35
2019-05-02T15:55:25.764Z,7.10
2019-05-02T15:57:55.400Z,6.87
2019-05-02T16:00:42.654Z,7.15
2019-05-02T16:03:12.285Z,5.20
2019-05-02T16:05:45.149Z,6.45
2019-05-02T16:08:13.289Z,6.33
2019-05-02T16:10:42.973Z,7.72
2019-05-02T16:13:17.150Z,5.45
2019-05-02T16:15:44.960Z,5.40
2019-05-02T16:18:14.620Z,7.42
2019-05-02T16:20:49.312Z,5.12
2019-05-02T16:23:27.486Z,5.55
2019-05-02T16:25:52.288Z,7.95
2019-05-02T16:28:21.796Z,5.95
2019-05-02T16:30:53.122Z,5.67
2019-05-02T16:33:22.758Z,4.40
2019-05-02T16:35:54.445Z,4.67
2019-05-02T16:38:26.735Z,4.30
2019-05-02T16:40:55.166Z,3.95
2019-05-02T16:43:26.471Z,3.42
2019-05-02T16:45:56.142Z,5.60
2019-05-02T16:48:32.384Z,3.55
2019-05-02T16:50:57.163Z,5.62
2019-05-02T16:53:26.795Z,3.27
2019-05-02T16:55:58.376Z,4.53
2019-05-02T16:58:28.111Z,6.47
2019-05-02T17:00:57.831Z,4.35
2019-05-02T17:03:27.584Z,4.65
2019-05-02T17:05:57.199Z,5.62
2019-05-02T17:08:32.830Z,5.28
2019-05-02T17:11:04.267Z,6.25
2019-05-02T17:13:35.799Z,6.22
2019-05-02T17:16:13.010Z,4.60
2019-05-02T17:18:36.841Z,5.05
2019-05-02T17:21:06.706Z,5.42
2019-05-02T17:23:37.370Z,5.45
2019-05-02T17:26:07.981Z,5.25
2019-05-02T17:28:37.990Z,6.17
2019-05-02T17:31:10.783Z,4.10
2019-05-02T17:33:41.712Z,6.12
2019-05-02T17:36:11.683Z,5.05
2019-05-02T17:38:41.830Z,4.53
2019-05-02T17:41:11.909Z,4.85
2019-05-02T17:43:42.175Z,8.60
2019-05-02T17:46:18.296Z,7.12
2019-05-02T17:48:47.611Z,7.10
2019-05-02T17:51:20.330Z,13.30
2019-05-02T17:53:50.143Z,15.58
2019-05-02T17:56:22.709Z,10.43
2019-05-02T17:58:54.303Z,11.12
2019-05-02T18:01:33.389Z,11.15
2019-05-02T18:03:59.010Z,10.98
2019-05-02T18:06:32.859Z,10.40
2019-05-02T18:09:00.038Z,10.20
2019-05-02T18:11:36.312Z,7.50
2019-05-02T18:14:03.296Z,7.28
2019-05-02T18:16:32.520Z,5.92
2019-05-02T18:19:02.187Z,6.85
2019-05-02T18:21:32.318Z,6.80
2019-05-02T18:24:05.924Z,5.90
2019-05-02T18:26:33.505Z,6.17
2019-05-02T18:29:06.902Z,7.87
2019-05-02T18:31:39.105Z,8.55
2019-05-02T18:34:06.133Z,11.00
2019-05-02T18:36:35.793Z,14.03
2019-05-02T18:39:08.337Z,9.78
2019-05-02T18:41:44.672Z,8.98
2019-05-02T18:44:11.682Z,8.28
2019-05-02T18:46:41.591Z,6.45
2019-05-02T18:49:12.477Z,5.70
2019-05-02T18:51:48.332Z,6.87
2019-05-02T18:54:15.406Z,8.75
2019-05-02T18:56:50.104Z,8.63
2019-05-02T18:59:19.913Z,8.10
2019-05-02T19:01:52.716Z,6.33
2019-05-02T19:04:22.394Z,5.08
2019-05-02T19:06:52.027Z,7.83
2019-05-02T19:09:22.827Z,6.17
2019-05-02T19:12:04.492Z,6.53
2019-05-02T19:14:26.026Z,6.33
2019-05-02T19:16:58.085Z,8.78
2019-05-02T19:19:32.310Z,14.25
2019-05-02T19:21:58.958Z,9.95
2019-05-02T19:24:34.956Z,8.43
2019-05-02T19:27:02.088Z,11.05
2019-05-02T19:29:31.967Z,11.78
2019-05-02T19:32:01.802Z,8.10
2019-05-02T19:34:32.353Z,9.58
2019-05-02T19:37:03.033Z,8.50
2019-05-02T19:39:38.959Z,6.80
2019-05-02T19:42:07.708Z,9.18
2019-05-02T19:44:37.411Z,8.68
2019-05-02T19:47:08.219Z,9.15
2019-05-02T19:49:38.577Z,9.75
2019-05-02T19:52:08.377Z,11.93
2019-05-02T19:54:41.216Z,9.15
2019-05-02T19:57:09.476Z,8.23
2019-05-02T19:59:39.117Z,10.98
2019-05-02T20:02:08.915Z,7.53
2019-05-02T20:04:42.768Z,7.65
2019-05-02T20:07:13.162Z,11.50
2019-05-02T20:09:46.191Z,7.72
2019-05-02T20:12:15.729Z,8.38
2019-05-02T20:14:47.450Z,10.65
2019-05-02T20:17:20.133Z,9.68
2019-05-02T20:19:50.201Z,7.67
2019-05-02T20:22:19.906Z,10.65
2019-05-02T20:25:00.102Z,9.88
2019-05-02T20:27:28.870Z,9.78
2019-05-02T20:29:59.007Z,9.50
2019-05-02T20:32:28.709Z,11.18
2019-05-02T20:34:58.439Z,10.98
2019-05-02T20:37:28.242Z,11.75
2019-05-02T20:39:57.980Z,12.37
2019-05-02T20:42:27.706Z,11.68
2019-05-02T20:44:57.404Z,10.95
2019-05-02T20:47:28.174Z,10.72
2019-05-02T20:49:57.960Z,10.78
2019-05-02T20:52:27.630Z,11.48
2019-05-02T20:54:57.333Z,10.85
2019-05-02T20:57:26.992Z,9.63
2019-05-02T20:59:56.707Z,10.78
2019-05-02T21:02:26.432Z,10.15
2019-05-02T21:04:56.136Z,10.88
2019-05-02T21:07:42.889Z,8.38
2019-05-02T21:10:14.361Z,7.65
2019-05-02T21:12:44.025Z,8.10
2019-05-02T21:15:13.865Z,11.78
2019-05-02T21:17:43.597Z,8.75
2019-05-02T21:20:13.443Z,9.95
2019-05-02T21:22:43.165Z,9.90
2019-05-02T21:25:13.206Z,9.50
2019-05-02T21:27:43.418Z,9.18
2019-05-02T21:30:14.597Z,9.08
2019-05-02T21:32:44.346Z,9.83
2019-05-02T21:35:14.131Z,9.83
2019-05-02T21:37:43.764Z,8.43
2019-05-02T21:40:13.656Z,10.30
2019-05-02T21:42:43.297Z,8.90
2019-05-02T21:45:13.363Z,8.95
2019-05-02T21:47:43.160Z,9.35
2019-05-02T21:50:15.270Z,8.85
2019-05-02T21:52:49.262Z,10.05
2019-05-02T21:55:26.516Z,9.80
2019-05-02T21:57:56.148Z,8.23
2019-05-02T22:00:42.259Z,7.97
2019-05-02T22:03:12.599Z,9.55
2019-05-02T22:05:43.008Z,10.20
2019-05-02T22:08:13.078Z,8.45
2019-05-02T22:10:42.776Z,9.95
2019-05-02T22:13:12.508Z,10.35
2019-05-02T22:15:42.138Z,12.35
2019-05-02T22:18:11.804Z,10.65
2019-05-02T22:20:42.777Z,10.90
2019-05-02T22:23:12.861Z,10.93
2019-05-02T22:25:42.489Z,12.78
2019-05-02T22:28:12.648Z,12.00
2019-05-02T22:30:42.927Z,14.00
2019-05-02T22:33:12.797Z,16.00
2019-05-02T22:35:43.369Z,20.00
2019-05-02T22:38:23.828Z,19.35
2019-05-02T22:40:55.203Z,21.52
2019-05-02T22:43:24.850Z,18.52
2019-05-02T22:45:54.523Z,18.55
2019-05-02T22:48:24.163Z,19.73
2019-05-02T22:50:53.835Z,21.15
2019-05-02T22:53:23.522Z,21.55
2019-05-02T22:55:53.192Z,22.25
2019-05-02T22:58:22.829Z,22.85
2019-05-02T23:00:52.497Z,21.23
2019-05-02T23:03:24.159Z,19.10
2019-05-02T23:05:53.563Z,19.67
2019-05-02T23:08:23.375Z,21.35
2019-05-02T23:10:53.085Z,21.35
2019-05-02T23:13:24.667Z,24.32
2019-05-02T23:15:54.107Z,25.27
2019-05-02T23:18:23.775Z,24.15
2019-05-02T23:20:53.550Z,22.77
2019-05-02T23:23:24.199Z,21.87
2019-05-02T23:26:01.531Z,25.12
2019-05-02T23:28:32.931Z,22.17
2019-05-02T23:31:02.726Z,25.82
2019-05-02T23:33:51.624Z,24.10
2019-05-02T23:36:21.359Z,25.55
2019-05-02T23:38:52.222Z,23.92
2019-05-02T23:41:22.148Z,22.32
2019-05-02T23:43:52.464Z,23.90
2019-05-02T23:46:23.468Z,27.20
2019-05-02T23:48:53.563Z,25.92
2019-05-02T23:51:23.294Z,26.10
2019-05-02T23:53:53.067Z,24.77
2019-05-02T23:56:22.798Z,23.05
2019-05-02T23:58:52.452Z,24.15
